sensor_id;sensor_type;location;lat;lon;timestamp;P1;durP1;ratioP1;P2;durP2;ratioP2
13122;SDS011;6627;50.920;12.050;2023-03-12T00:00:06;15.00;;;7.90;;
13122;SDS011;6627;50.920;12.050;2023-03-12T00:02:35;10.33;;;6.07;;
13122;SDS011;6627;50.920;12.050;2023-03-12T00:05:03;16.60;;;7.17;;
13122;SDS011;6627;50.920;12.050;2023-03-12T00:07:31;9.37;;;6.13;;
13122;SDS011;6627;50.920;12.050;2023-03-12T00:10:00;8.93;;;6.47;;
13122;SDS011;6627;50.920;12.050;2023-03-12T00:12:29;8.47;;;5.87;;
13122;SDS011;6627;50.920;12.050;2023-03-12T00:14:57;10.67;;;7.20;;
13122;SDS011;6627;50.920;12.050;2023-03-12T00:17:24;10.37;;;5.90;;
13122;SDS011;6627;50.920;12.050;2023-03-12T00:19:51;11.37;;;6.33;;
13122;SDS011;6627;50.920;12.050;2023-03-12T00:22:19;9.13;;;5.93;;
13122;SDS011;6627;50.920;12.050;2023-03-12T00:24:49;10.67;;;5.50;;
13122;SDS011;6627;50.920;12.050;2023-03-12T00:27:18;9.40;;;5.37;;
13122;SDS011;6627;50.920;12.050;2023-03-12T00:29:47;9.97;;;6.33;;
13122;SDS011;6627;50.920;12.050;2023-03-12T00:32:15;8.87;;;6.33;;
13122;SDS011;6627;50.920;12.050;2023-03-12T00:34:43;10.00;;;6.57;;
13122;SDS011;6627;50.920;12.050;2023-03-12T00:37:15;10.37;;;7.30;;
13122;SDS011;6627;50.920;12.050;2023-03-12T00:39:42;11.60;;;7.87;;
13122;SDS011;6627;50.920;12.050;2023-03-12T00:42:09;11.80;;;7.47;;
13122;SDS011;6627;50.920;12.050;2023-03-12T00:44:37;14.77;;;7.23;;
13122;SDS011;6627;50.920;12.050;2023-03-12T00:47:06;10.87;;;6.80;;
13122;SDS011;6627;50.920;12.050;2023-03-12T00:49:34;10.87;;;6.23;;
13122;SDS011;6627;50.920;12.050;2023-03-12T00:52:01;13.00;;;6.53;;
13122;SDS011;6627;50.920;12.050;2023-03-12T00:54:29;9.60;;;6.27;;
13122;SDS011;6627;50.920;12.050;2023-03-12T00:56:57;10.00;;;6.40;;
13122;SDS011;6627;50.920;12.050;2023-03-12T00:59:24;8.53;;;5.83;;
13122;SDS011;6627;50.920;12.050;2023-03-12T01:01:51;7.70;;;4.67;;
13122;SDS011;6627;50.920;12.050;2023-03-12T01:04:21;8.03;;;4.07;;
13122;SDS011;6627;50.920;12.050;2023-03-12T01:06:49;9.03;;;4.97;;
13122;SDS011;6627;50.920;12.050;2023-03-12T01:09:16;6.57;;;4.53;;
13122;SDS011;6627;50.920;12.050;2023-03-12T01:11:44;7.73;;;4.67;;
13122;SDS011;6627;50.920;12.050;2023-03-12T01:14:11;13.30;;;7.07;;
13122;SDS011;6627;50.920;12.050;2023-03-12T01:16:38;13.20;;;7.37;;
13122;SDS011;6627;50.920;12.050;2023-03-12T01:19:05;12.83;;;7.77;;
13122;SDS011;6627;50.920;12.050;2023-03-12T01:21:34;14.33;;;7.77;;
13122;SDS011;6627;50.920;12.050;2023-03-12T01:24:01;31.13;;;13.83;;
13122;SDS011;6627;50.920;12.050;2023-03-12T01:26:29;16.57;;;7.60;;
13122;SDS011;6627;50.920;12.050;2023-03-12T01:28:56;10.33;;;5.20;;
13122;SDS011;6627;50.920;12.050;2023-03-12T01:31:23;15.93;;;7.93;;
13122;SDS011;6627;50.920;12.050;2023-03-12T01:33:51;15.77;;;8.90;;
13122;SDS011;6627;50.920;12.050;2023-03-12T01:36:22;14.17;;;7.77;;
13122;SDS011;6627;50.920;12.050;2023-03-12T01:38:54;9.93;;;6.73;;
13122;SDS011;6627;50.920;12.050;2023-03-12T01:41:23;10.60;;;6.53;;
13122;SDS011;6627;50.920;12.050;2023-03-12T01:43:53;10.17;;;6.13;;
13122;SDS011;6627;50.920;12.050;2023-03-12T01:46:24;13.67;;;6.70;;
13122;SDS011;6627;50.920;12.050;2023-03-12T01:48:54;12.53;;;6.30;;
13122;SDS011;6627;50.920;12.050;2023-03-12T01:51:29;18.10;;;9.60;;
13122;SDS011;6627;50.920;12.050;2023-03-12T01:54:03;13.00;;;8.27;;
13122;SDS011;6627;50.920;12.050;2023-03-12T01:56:34;12.90;;;7.97;;
13122;SDS011;6627;50.920;12.050;2023-03-12T01:59:05;10.93;;;6.27;;
13122;SDS011;6627;50.920;12.050;2023-03-12T02:01:37;11.93;;;6.13;;
13122;SDS011;6627;50.920;12.050;2023-03-12T02:04:07;12.07;;;6.20;;
13122;SDS011;6627;50.920;12.050;2023-03-12T02:06:36;9.90;;;5.67;;
13122;SDS011;6627;50.920;12.050;2023-03-12T02:09:11;9.77;;;5.20;;
13122;SDS011;6627;50.920;12.050;2023-03-12T02:11:39;10.10;;;5.10;;
13122;SDS011;6627;50.920;12.050;2023-03-12T02:14:07;9.37;;;5.00;;
13122;SDS011;6627;50.920;12.050;2023-03-12T02:16:34;7.90;;;4.40;;
13122;SDS011;6627;50.920;12.050;2023-03-12T02:19:02;8.40;;;4.67;;
13122;SDS011;6627;50.920;12.050;2023-03-12T02:21:40;8.47;;;4.77;;
13122;SDS011;6627;50.920;12.050;2023-03-12T02:24:11;7.10;;;4.43;;
13122;SDS011;6627;50.920;12.050;2023-03-12T02:26:52;9.20;;;4.00;;
13122;SDS011;6627;50.920;12.050;2023-03-12T02:29:20;6.70;;;4.13;;
13122;SDS011;6627;50.920;12.050;2023-03-12T02:31:50;7.77;;;4.43;;
13122;SDS011;6627;50.920;12.050;2023-03-12T02:34:21;6.70;;;3.67;;
13122;SDS011;6627;50.920;12.050;2023-03-12T02:36:49;6.97;;;4.13;;
13122;SDS011;6627;50.920;12.050;2023-03-12T02:39:16;6.23;;;3.80;;
13122;SDS011;6627;50.920;12.050;2023-03-12T02:41:45;9.43;;;4.53;;
13122;SDS011;6627;50.920;12.050;2023-03-12T02:44:20;7.43;;;3.83;;
13122;SDS011;6627;50.920;12.050;2023-03-12T02:46:52;6.93;;;3.90;;
13122;SDS011;6627;50.920;12.050;2023-03-12T02:49:22;6.60;;;3.83;;
13122;SDS011;6627;50.920;12.050;2023-03-12T02:51:52;8.83;;;4.80;;
13122;SDS011;6627;50.920;12.050;2023-03-12T02:54:19;6.10;;;4.30;;
13122;SDS011;6627;50.920;12.050;2023-03-12T02:56:49;9.13;;;4.10;;
13122;SDS011;6627;50.920;12.050;2023-03-12T02:59:17;9.00;;;5.07;;
13122;SDS011;6627;50.920;12.050;2023-03-12T03:01:50;9.57;;;4.50;;
13122;SDS011;6627;50.920;12.050;2023-03-12T03:04:18;9.50;;;4.37;;
13122;SDS011;6627;50.920;12.050;2023-03-12T03:06:46;10.50;;;4.73;;
13122;SDS011;6627;50.920;12.050;2023-03-12T03:09:14;9.97;;;5.20;;
13122;SDS011;6627;50.920;12.050;2023-03-12T03:11:41;7.60;;;4.53;;
13122;SDS011;6627;50.920;12.050;2023-03-12T03:14:08;9.80;;;5.00;;
13122;SDS011;6627;50.920;12.050;2023-03-12T03:16:37;12.17;;;5.03;;
13122;SDS011;6627;50.920;12.050;2023-03-12T03:19:04;9.60;;;4.97;;
13122;SDS011;6627;50.920;12.050;2023-03-12T03:21:32;6.70;;;4.77;;
13122;SDS011;6627;50.920;12.050;2023-03-12T03:24:00;8.27;;;4.93;;
13122;SDS011;6627;50.920;12.050;2023-03-12T03:26:27;9.17;;;4.90;;
13122;SDS011;6627;50.920;12.050;2023-03-12T03:28:54;16.93;;;5.03;;
13122;SDS011;6627;50.920;12.050;2023-03-12T03:31:21;9.07;;;4.87;;
13122;SDS011;6627;50.920;12.050;2023-03-12T03:33:50;9.07;;;5.00;;
13122;SDS011;6627;50.920;12.050;2023-03-12T03:36:17;8.10;;;5.30;;
13122;SDS011;6627;50.920;12.050;2023-03-12T03:38:45;9.80;;;5.47;;
13122;SDS011;6627;50.920;12.050;2023-03-12T03:41:14;11.03;;;5.37;;
13122;SDS011;6627;50.920;12.050;2023-03-12T03:43:43;11.20;;;5.30;;
13122;SDS011;6627;50.920;12.050;2023-03-12T03:46:11;7.77;;;4.90;;
13122;SDS011;6627;50.920;12.050;2023-03-12T03:48:39;6.57;;;4.57;;
13122;SDS011;6627;50.920;12.050;2023-03-12T03:51:09;7.60;;;4.43;;
13122;SDS011;6627;50.920;12.050;2023-03-12T03:53:37;8.03;;;4.67;;
13122;SDS011;6627;50.920;12.050;2023-03-12T03:56:04;9.67;;;4.63;;
13122;SDS011;6627;50.920;12.050;2023-03-12T03:58:53;6.00;;;4.20;;
13122;SDS011;6627;50.920;12.050;2023-03-12T04:01:20;8.77;;;4.30;;
13122;SDS011;6627;50.920;12.050;2023-03-12T04:03:47;6.67;;;4.33;;
13122;SDS011;6627;50.920;12.050;2023-03-12T04:06:15;6.93;;;4.40;;
13122;SDS011;6627;50.920;12.050;2023-03-12T04:08:42;9.37;;;4.70;;
13122;SDS011;6627;50.920;12.050;2023-03-12T04:11:10;7.33;;;4.50;;
13122;SDS011;6627;50.920;12.050;2023-03-12T04:13:40;7.60;;;4.30;;
13122;SDS011;6627;50.920;12.050;2023-03-12T04:16:08;7.73;;;4.20;;
13122;SDS011;6627;50.920;12.050;2023-03-12T04:18:36;10.57;;;5.10;;
13122;SDS011;6627;50.920;12.050;2023-03-12T04:21:04;15.47;;;7.47;;
13122;SDS011;6627;50.920;12.050;2023-03-12T04:23:35;12.13;;;7.20;;
13122;SDS011;6627;50.920;12.050;2023-03-12T04:26:03;12.43;;;6.77;;
13122;SDS011;6627;50.920;12.050;2023-03-12T04:28:32;10.97;;;6.60;;
13122;SDS011;6627;50.920;12.050;2023-03-12T04:31:01;12.37;;;7.27;;
13122;SDS011;6627;50.920;12.050;2023-03-12T04:33:31;13.17;;;7.33;;
13122;SDS011;6627;50.920;12.050;2023-03-12T04:36:02;11.40;;;5.37;;
13122;SDS011;6627;50.920;12.050;2023-03-12T04:38:31;8.10;;;5.23;;
13122;SDS011;6627;50.920;12.050;2023-03-12T04:41:01;9.60;;;4.80;;
13122;SDS011;6627;50.920;12.050;2023-03-12T04:43:31;7.50;;;4.30;;
13122;SDS011;6627;50.920;12.050;2023-03-12T04:46:00;6.07;;;4.00;;
13122;SDS011;6627;50.920;12.050;2023-03-12T04:48:28;7.10;;;3.70;;
13122;SDS011;6627;50.920;12.050;2023-03-12T04:50:56;8.00;;;3.63;;
13122;SDS011;6627;50.920;12.050;2023-03-12T04:53:23;5.30;;;3.20;;
13122;SDS011;6627;50.920;12.050;2023-03-12T04:55:51;6.63;;;3.77;;
13122;SDS011;6627;50.920;12.050;2023-03-12T04:58:20;6.17;;;3.87;;
13122;SDS011;6627;50.920;12.050;2023-03-12T05:00:48;9.43;;;4.10;;
13122;SDS011;6627;50.920;12.050;2023-03-12T05:03:16;7.13;;;3.40;;
13122;SDS011;6627;50.920;12.050;2023-03-12T05:05:44;10.50;;;6.00;;
13122;SDS011;6627;50.920;12.050;2023-03-12T05:08:11;12.07;;;7.47;;
13122;SDS011;6627;50.920;12.050;2023-03-12T05:10:38;13.50;;;7.90;;
13122;SDS011;6627;50.920;12.050;2023-03-12T05:13:11;12.90;;;8.20;;
13122;SDS011;6627;50.920;12.050;2023-03-12T05:15:41;9.73;;;7.37;;
13122;SDS011;6627;50.920;12.050;2023-03-12T05:18:09;10.60;;;7.93;;
13122;SDS011;6627;50.920;12.050;2023-03-12T05:20:37;15.23;;;10.60;;
13122;SDS011;6627;50.920;12.050;2023-03-12T05:23:04;6.93;;;4.87;;
13122;SDS011;6627;50.920;12.050;2023-03-12T05:25:31;5.00;;;4.33;;
13122;SDS011;6627;50.920;12.050;2023-03-12T05:27:59;9.30;;;7.43;;
13122;SDS011;6627;50.920;12.050;2023-03-12T05:30:26;6.00;;;4.60;;
13122;SDS011;6627;50.920;12.050;2023-03-12T05:32:54;7.00;;;4.33;;
13122;SDS011;6627;50.920;12.050;2023-03-12T05:35:22;7.97;;;3.90;;
13122;SDS011;6627;50.920;12.050;2023-03-12T05:37:49;8.33;;;4.20;;
13122;SDS011;6627;50.920;12.050;2023-03-12T05:40:16;9.00;;;5.27;;
13122;SDS011;6627;50.920;12.050;2023-03-12T05:42:43;8.70;;;6.80;;
13122;SDS011;6627;50.920;12.050;2023-03-12T05:45:11;9.33;;;4.93;;
13122;SDS011;6627;50.920;12.050;2023-03-12T05:47:38;8.33;;;4.27;;
13122;SDS011;6627;50.920;12.050;2023-03-12T05:50:07;6.40;;;4.27;;
13122;SDS011;6627;50.920;12.050;2023-03-12T05:52:35;7.50;;;5.00;;
13122;SDS011;6627;50.920;12.050;2023-03-12T05:55:03;7.17;;;4.27;;
13122;SDS011;6627;50.920;12.050;2023-03-12T05:57:31;9.43;;;4.67;;
13122;SDS011;6627;50.920;12.050;2023-03-12T05:59:58;6.33;;;4.53;;
13122;SDS011;6627;50.920;12.050;2023-03-12T06:02:26;9.70;;;4.37;;
13122;SDS011;6627;50.920;12.050;2023-03-12T06:04:53;7.17;;;4.57;;
13122;SDS011;6627;50.920;12.050;2023-03-12T06:07:24;7.87;;;6.17;;
13122;SDS011;6627;50.920;12.050;2023-03-12T06:09:51;10.00;;;5.57;;
13122;SDS011;6627;50.920;12.050;2023-03-12T06:12:18;6.40;;;4.43;;
13122;SDS011;6627;50.920;12.050;2023-03-12T06:14:45;8.63;;;4.47;;
13122;SDS011;6627;50.920;12.050;2023-03-12T06:17:12;8.93;;;4.50;;
13122;SDS011;6627;50.920;12.050;2023-03-12T06:19:39;8.23;;;3.80;;
13122;SDS011;6627;50.920;12.050;2023-03-12T06:22:08;7.70;;;4.87;;
13122;SDS011;6627;50.920;12.050;2023-03-12T06:24:36;10.97;;;4.17;;
13122;SDS011;6627;50.920;12.050;2023-03-12T06:27:06;11.27;;;4.20;;
13122;SDS011;6627;50.920;12.050;2023-03-12T06:29:33;7.47;;;4.00;;
13122;SDS011;6627;50.920;12.050;2023-03-12T06:32:00;7.37;;;3.63;;
13122;SDS011;6627;50.920;12.050;2023-03-12T06:34:27;7.07;;;4.23;;
13122;SDS011;6627;50.920;12.050;2023-03-12T06:36:55;8.60;;;4.23;;
13122;SDS011;6627;50.920;12.050;2023-03-12T06:39:22;9.17;;;3.97;;
13122;SDS011;6627;50.920;12.050;2023-03-12T06:41:50;7.87;;;4.00;;
13122;SDS011;6627;50.920;12.050;2023-03-12T06:44:17;7.60;;;4.30;;
13122;SDS011;6627;50.920;12.050;2023-03-12T06:46:44;7.33;;;4.43;;
13122;SDS011;6627;50.920;12.050;2023-03-12T06:49:12;8.73;;;4.17;;
13122;SDS011;6627;50.920;12.050;2023-03-12T06:51:40;7.30;;;4.13;;
13122;SDS011;6627;50.920;12.050;2023-03-12T06:54:07;5.03;;;4.20;;
13122;SDS011;6627;50.920;12.050;2023-03-12T06:56:34;7.77;;;4.10;;
13122;SDS011;6627;50.920;12.050;2023-03-12T06:59:03;6.97;;;4.07;;
13122;SDS011;6627;50.920;12.050;2023-03-12T07:01:31;6.47;;;4.07;;
13122;SDS011;6627;50.920;12.050;2023-03-12T07:03:58;5.77;;;3.80;;
13122;SDS011;6627;50.920;12.050;2023-03-12T07:06:25;7.83;;;4.13;;
13122;SDS011;6627;50.920;12.050;2023-03-12T07:08:53;8.40;;;4.50;;
13122;SDS011;6627;50.920;12.050;2023-03-12T07:11:20;7.30;;;4.10;;
13122;SDS011;6627;50.920;12.050;2023-03-12T07:13:47;10.37;;;4.60;;
13122;SDS011;6627;50.920;12.050;2023-03-12T07:16:15;5.97;;;4.13;;
13122;SDS011;6627;50.920;12.050;2023-03-12T07:18:42;6.90;;;4.10;;
13122;SDS011;6627;50.920;12.050;2023-03-12T07:21:09;5.30;;;4.03;;
13122;SDS011;6627;50.920;12.050;2023-03-12T07:23:37;8.13;;;4.47;;
13122;SDS011;6627;50.920;12.050;2023-03-12T07:26:04;6.03;;;3.90;;
13122;SDS011;6627;50.920;12.050;2023-03-12T07:28:33;5.40;;;3.10;;
13122;SDS011;6627;50.920;12.050;2023-03-12T07:31:00;6.43;;;3.27;;
13122;SDS011;6627;50.920;12.050;2023-03-12T07:33:30;5.97;;;3.47;;
13122;SDS011;6627;50.920;12.050;2023-03-12T07:36:00;5.97;;;3.70;;
13122;SDS011;6627;50.920;12.050;2023-03-12T07:38:28;5.87;;;3.70;;
13122;SDS011;6627;50.920;12.050;2023-03-12T07:40:56;4.37;;;3.60;;
13122;SDS011;6627;50.920;12.050;2023-03-12T07:43:24;8.97;;;3.43;;
13122;SDS011;6627;50.920;12.050;2023-03-12T07:45:52;6.00;;;3.80;;
13122;SDS011;6627;50.920;12.050;2023-03-12T07:48:19;5.83;;;3.53;;
13122;SDS011;6627;50.920;12.050;2023-03-12T07:50:49;6.10;;;3.83;;
13122;SDS011;6627;50.920;12.050;2023-03-12T07:53:16;5.63;;;3.63;;
13122;SDS011;6627;50.920;12.050;2023-03-12T07:55:44;6.13;;;3.73;;
13122;SDS011;6627;50.920;12.050;2023-03-12T07:58:14;5.27;;;4.23;;
13122;SDS011;6627;50.920;12.050;2023-03-12T08:00:41;7.87;;;3.50;;
13122;SDS011;6627;50.920;12.050;2023-03-12T08:03:09;6.33;;;3.80;;
13122;SDS011;6627;50.920;12.050;2023-03-12T08:05:36;6.67;;;3.67;;
13122;SDS011;6627;50.920;12.050;2023-03-12T08:08:05;8.00;;;4.20;;
13122;SDS011;6627;50.920;12.050;2023-03-12T08:10:33;9.33;;;4.37;;
13122;SDS011;6627;50.920;12.050;2023-03-12T08:13:01;6.33;;;4.20;;
13122;SDS011;6627;50.920;12.050;2023-03-12T08:15:28;6.83;;;3.50;;
13122;SDS011;6627;50.920;12.050;2023-03-12T08:17:55;4.70;;;3.53;;
13122;SDS011;6627;50.920;12.050;2023-03-12T08:20:22;7.27;;;3.87;;
13122;SDS011;6627;50.920;12.050;2023-03-12T08:22:50;7.37;;;4.33;;
13122;SDS011;6627;50.920;12.050;2023-03-12T08:25:18;8.23;;;4.07;;
13122;SDS011;6627;50.920;12.050;2023-03-12T08:27:45;7.50;;;3.57;;
13122;SDS011;6627;50.920;12.050;2023-03-12T08:30:12;4.97;;;3.40;;
13122;SDS011;6627;50.920;12.050;2023-03-12T08:32:40;10.70;;;4.07;;
13122;SDS011;6627;50.920;12.050;2023-03-12T08:35:07;7.27;;;3.93;;
13122;SDS011;6627;50.920;12.050;2023-03-12T08:37:35;10.23;;;3.53;;
13122;SDS011;6627;50.920;12.050;2023-03-12T08:40:02;5.90;;;3.30;;
13122;SDS011;6627;50.920;12.050;2023-03-12T08:42:38;6.97;;;3.40;;
13122;SDS011;6627;50.920;12.050;2023-03-12T08:45:06;8.83;;;4.00;;
13122;SDS011;6627;50.920;12.050;2023-03-12T08:47:35;5.30;;;3.73;;
13122;SDS011;6627;50.920;12.050;2023-03-12T08:50:06;8.27;;;4.60;;
13122;SDS011;6627;50.920;12.050;2023-03-12T08:52:35;7.57;;;4.60;;
13122;SDS011;6627;50.920;12.050;2023-03-12T08:55:03;5.03;;;4.10;;
13122;SDS011;6627;50.920;12.050;2023-03-12T08:57:31;5.50;;;3.27;;
13122;SDS011;6627;50.920;12.050;2023-03-12T09:00:00;5.83;;;3.30;;
13122;SDS011;6627;50.920;12.050;2023-03-12T09:02:29;6.50;;;2.50;;
13122;SDS011;6627;50.920;12.050;2023-03-12T09:04:58;5.13;;;2.77;;
13122;SDS011;6627;50.920;12.050;2023-03-12T09:07:25;6.97;;;2.60;;
13122;SDS011;6627;50.920;12.050;2023-03-12T09:09:53;5.53;;;2.80;;
13122;SDS011;6627;50.920;12.050;2023-03-12T09:12:20;4.50;;;3.00;;
13122;SDS011;6627;50.920;12.050;2023-03-12T09:14:48;6.47;;;2.90;;
13122;SDS011;6627;50.920;12.050;2023-03-12T09:17:17;4.50;;;2.43;;
13122;SDS011;6627;50.920;12.050;2023-03-12T09:19:44;7.70;;;2.70;;
13122;SDS011;6627;50.920;12.050;2023-03-12T09:22:12;6.50;;;2.60;;
13122;SDS011;6627;50.920;12.050;2023-03-12T09:24:39;5.53;;;2.50;;
13122;SDS011;6627;50.920;12.050;2023-03-12T09:27:06;5.93;;;2.63;;
13122;SDS011;6627;50.920;12.050;2023-03-12T09:29:33;6.93;;;2.90;;
13122;SDS011;6627;50.920;12.050;2023-03-12T09:32:01;6.23;;;3.40;;
13122;SDS011;6627;50.920;12.050;2023-03-12T09:34:29;6.20;;;3.53;;
13122;SDS011;6627;50.920;12.050;2023-03-12T09:36:56;6.03;;;3.70;;
13122;SDS011;6627;50.920;12.050;2023-03-12T09:39:23;5.73;;;3.20;;
13122;SDS011;6627;50.920;12.050;2023-03-12T09:41:51;6.57;;;3.10;;
13122;SDS011;6627;50.920;12.050;2023-03-12T09:44:19;5.53;;;2.80;;
13122;SDS011;6627;50.920;12.050;2023-03-12T09:46:58;5.97;;;2.80;;
13122;SDS011;6627;50.920;12.050;2023-03-12T09:49:33;9.77;;;2.87;;
13122;SDS011;6627;50.920;12.050;2023-03-12T09:52:07;7.97;;;3.03;;
13122;SDS011;6627;50.920;12.050;2023-03-12T09:54:51;5.90;;;3.00;;
13122;SDS011;6627;50.920;12.050;2023-03-12T09:57:27;4.13;;;2.70;;
13122;SDS011;6627;50.920;12.050;2023-03-12T09:59:56;4.40;;;2.73;;
13122;SDS011;6627;50.920;12.050;2023-03-12T10:02:37;7.00;;;2.73;;
13122;SDS011;6627;50.920;12.050;2023-03-12T10:05:29;5.07;;;2.73;;
13122;SDS011;6627;50.920;12.050;2023-03-12T10:08:04;5.70;;;2.97;;
13122;SDS011;6627;50.920;12.050;2023-03-12T10:10:45;5.50;;;2.80;;
13122;SDS011;6627;50.920;12.050;2023-03-12T10:13:23;6.10;;;2.80;;
13122;SDS011;6627;50.920;12.050;2023-03-12T10:16:15;4.90;;;2.93;;
13122;SDS011;6627;50.920;12.050;2023-03-12T10:19:09;5.90;;;2.70;;
13122;SDS011;6627;50.920;12.050;2023-03-12T10:21:54;5.60;;;3.00;;
13122;SDS011;6627;50.920;12.050;2023-03-12T10:24:35;4.53;;;2.90;;
13122;SDS011;6627;50.920;12.050;2023-03-12T10:27:19;4.20;;;2.57;;
13122;SDS011;6627;50.920;12.050;2023-03-12T10:29:56;7.27;;;2.93;;
13122;SDS011;6627;50.920;12.050;2023-03-12T10:32:32;3.40;;;2.53;;
13122;SDS011;6627;50.920;12.050;2023-03-12T10:35:12;3.87;;;2.67;;
13122;SDS011;6627;50.920;12.050;2023-03-12T10:37:44;6.23;;;3.20;;
13122;SDS011;6627;50.920;12.050;2023-03-12T10:40:18;5.70;;;3.53;;
13122;SDS011;6627;50.920;12.050;2023-03-12T10:42:50;5.63;;;2.80;;
13122;SDS011;6627;50.920;12.050;2023-03-12T10:45:21;6.40;;;2.63;;
13122;SDS011;6627;50.920;12.050;2023-03-12T10:48:01;4.90;;;2.93;;
13122;SDS011;6627;50.920;12.050;2023-03-12T10:50:32;3.03;;;2.40;;
13122;SDS011;6627;50.920;12.050;2023-03-12T10:53:17;3.20;;;2.50;;
13122;SDS011;6627;50.920;12.050;2023-03-12T10:55:59;5.07;;;2.63;;
13122;SDS011;6627;50.920;12.050;2023-03-12T10:58:31;4.33;;;2.90;;
13122;SDS011;6627;50.920;12.050;2023-03-12T11:01:02;6.07;;;3.20;;
13122;SDS011;6627;50.920;12.050;2023-03-12T11:03:32;4.40;;;2.50;;
13122;SDS011;6627;50.920;12.050;2023-03-12T11:05:59;3.90;;;2.40;;
13122;SDS011;6627;50.920;12.050;2023-03-12T11:08:33;6.67;;;2.60;;
13122;SDS011;6627;50.920;12.050;2023-03-12T11:11:03;4.40;;;2.70;;
13122;SDS011;6627;50.920;12.050;2023-03-12T11:13:32;5.70;;;2.50;;
13122;SDS011;6627;50.920;12.050;2023-03-12T11:16:02;4.23;;;2.30;;
13122;SDS011;6627;50.920;12.050;2023-03-12T11:18:53;4.03;;;2.40;;
13122;SDS011;6627;50.920;12.050;2023-03-12T11:21:31;4.30;;;2.20;;
13122;SDS011;6627;50.920;12.050;2023-03-12T11:24:11;4.50;;;2.53;;
13122;SDS011;6627;50.920;12.050;2023-03-12T11:26:43;4.67;;;2.27;;
13122;SDS011;6627;50.920;12.050;2023-03-12T11:29:35;5.20;;;2.37;;
13122;SDS011;6627;50.920;12.050;2023-03-12T11:32:09;3.80;;;2.20;;
13122;SDS011;6627;50.920;12.050;2023-03-12T11:34:43;4.67;;;1.80;;
13122;SDS011;6627;50.920;12.050;2023-03-12T11:37:18;5.20;;;1.90;;
13122;SDS011;6627;50.920;12.050;2023-03-12T11:40:10;2.47;;;1.70;;
13122;SDS011;6627;50.920;12.050;2023-03-12T11:42:51;5.67;;;2.10;;
13122;SDS011;6627;50.920;12.050;2023-03-12T11:45:42;3.07;;;2.00;;
13122;SDS011;6627;50.920;12.050;2023-03-12T11:48:31;3.10;;;1.53;;
13122;SDS011;6627;50.920;12.050;2023-03-12T11:51:10;3.63;;;1.50;;
13122;SDS011;6627;50.920;12.050;2023-03-12T11:53:54;5.13;;;1.97;;
13122;SDS011;6627;50.920;12.050;2023-03-12T11:56:39;4.30;;;1.70;;
13122;SDS011;6627;50.920;12.050;2023-03-12T12:02:19;6.20;;;3.83;;
13122;SDS011;6627;50.920;12.050;2023-03-12T12:05:17;6.17;;;2.37;;
13122;SDS011;6627;50.920;12.050;2023-03-12T12:08:07;4.90;;;1.67;;
13122;SDS011;6627;50.920;12.050;2023-03-12T12:10:57;2.00;;;1.30;;
13122;SDS011;6627;50.920;12.050;2023-03-12T12:13:33;3.97;;;2.20;;
13122;SDS011;6627;50.920;12.050;2023-03-12T12:16:18;4.23;;;1.60;;
13122;SDS011;6627;50.920;12.050;2023-03-12T12:19:09;3.93;;;1.83;;
13122;SDS011;6627;50.920;12.050;2023-03-12T12:21:57;4.27;;;1.97;;
13122;SDS011;6627;50.920;12.050;2023-03-12T12:25:13;5.33;;;2.50;;
13122;SDS011;6627;50.920;12.050;2023-03-12T12:28:12;4.53;;;1.90;;
13122;SDS011;6627;50.920;12.050;2023-03-12T12:31:03;3.63;;;2.30;;
13122;SDS011;6627;50.920;12.050;2023-03-12T12:33:53;4.13;;;2.30;;
13122;SDS011;6627;50.920;12.050;2023-03-12T12:36:41;6.53;;;2.40;;
13122;SDS011;6627;50.920;12.050;2023-03-12T12:39:15;5.70;;;2.20;;
13122;SDS011;6627;50.920;12.050;2023-03-12T12:41:56;6.90;;;2.27;;
13122;SDS011;6627;50.920;12.050;2023-03-12T12:44:32;7.40;;;2.80;;
13122;SDS011;6627;50.920;12.050;2023-03-12T12:47:08;6.83;;;2.57;;
13122;SDS011;6627;50.920;12.050;2023-03-12T12:49:45;4.40;;;2.30;;
13122;SDS011;6627;50.920;12.050;2023-03-12T12:52:16;5.60;;;2.40;;
13122;SDS011;6627;50.920;12.050;2023-03-12T12:54:50;6.63;;;2.40;;
13122;SDS011;6627;50.920;12.050;2023-03-12T12:57:27;4.90;;;2.30;;
13122;SDS011;6627;50.920;12.050;2023-03-12T13:00:13;6.30;;;2.67;;
13122;SDS011;6627;50.920;12.050;2023-03-12T13:03:02;3.30;;;2.10;;
13122;SDS011;6627;50.920;12.050;2023-03-12T13:05:39;8.13;;;3.13;;
13122;SDS011;6627;50.920;12.050;2023-03-12T13:11:02;6.27;;;2.80;;
13122;SDS011;6627;50.920;12.050;2023-03-12T13:13:32;10.13;;;2.80;;
13122;SDS011;6627;50.920;12.050;2023-03-12T13:16:19;4.70;;;2.80;;
13122;SDS011;6627;50.920;12.050;2023-03-12T13:19:19;4.30;;;2.67;;
13122;SDS011;6627;50.920;12.050;2023-03-12T13:21:58;4.03;;;2.30;;
13122;SDS011;6627;50.920;12.050;2023-03-12T13:24:42;6.03;;;2.60;;
13122;SDS011;6627;50.920;12.050;2023-03-12T13:27:17;4.97;;;2.40;;
13122;SDS011;6627;50.920;12.050;2023-03-12T13:29:49;3.73;;;2.20;;
13122;SDS011;6627;50.920;12.050;2023-03-12T13:32:38;7.03;;;2.50;;
13122;SDS011;6627;50.920;12.050;2023-03-12T13:35:38;3.73;;;2.37;;
13122;SDS011;6627;50.920;12.050;2023-03-12T13:38:06;6.23;;;2.60;;
13122;SDS011;6627;50.920;12.050;2023-03-12T13:40:40;4.60;;;2.60;;
13122;SDS011;6627;50.920;12.050;2023-03-12T13:46:26;4.10;;;2.40;;
13122;SDS011;6627;50.920;12.050;2023-03-12T13:49:13;3.63;;;2.20;;
13122;SDS011;6627;50.920;12.050;2023-03-12T13:51:45;3.83;;;2.53;;
13122;SDS011;6627;50.920;12.050;2023-03-12T13:54:22;5.20;;;2.30;;
13122;SDS011;6627;50.920;12.050;2023-03-12T13:56:56;6.67;;;2.40;;
13122;SDS011;6627;50.920;12.050;2023-03-12T13:59:27;4.50;;;2.30;;
13122;SDS011;6627;50.920;12.050;2023-03-12T14:02:01;4.73;;;2.37;;
13122;SDS011;6627;50.920;12.050;2023-03-12T14:04:47;4.53;;;2.37;;
13122;SDS011;6627;50.920;12.050;2023-03-12T14:07:18;8.50;;;2.70;;
13122;SDS011;6627;50.920;12.050;2023-03-12T14:10:21;4.53;;;2.10;;
13122;SDS011;6627;50.920;12.050;2023-03-12T14:13:02;6.20;;;2.30;;
13122;SDS011;6627;50.920;12.050;2023-03-12T14:15:46;3.83;;;2.37;;
13122;SDS011;6627;50.920;12.050;2023-03-12T14:18:21;5.47;;;2.07;;
13122;SDS011;6627;50.920;12.050;2023-03-12T14:20:55;4.37;;;3.03;;
13122;SDS011;6627;50.920;12.050;2023-03-12T14:23:27;7.17;;;4.20;;
13122;SDS011;6627;50.920;12.050;2023-03-12T14:26:02;6.30;;;3.37;;
13122;SDS011;6627;50.920;12.050;2023-03-12T14:28:31;4.63;;;2.77;;
13122;SDS011;6627;50.920;12.050;2023-03-12T14:31:06;4.00;;;2.10;;
13122;SDS011;6627;50.920;12.050;2023-03-12T14:33:42;6.67;;;2.40;;
13122;SDS011;6627;50.920;12.050;2023-03-12T14:36:22;4.93;;;2.57;;
13122;SDS011;6627;50.920;12.050;2023-03-12T14:38:55;3.60;;;2.40;;
13122;SDS011;6627;50.920;12.050;2023-03-12T14:41:37;4.73;;;2.90;;
13122;SDS011;6627;50.920;12.050;2023-03-12T14:44:19;2.97;;;2.43;;
13122;SDS011;6627;50.920;12.050;2023-03-12T14:46:56;5.27;;;2.60;;
13122;SDS011;6627;50.920;12.050;2023-03-12T14:49:25;3.37;;;2.60;;
13122;SDS011;6627;50.920;12.050;2023-03-12T14:51:55;9.70;;;4.77;;
13122;SDS011;6627;50.920;12.050;2023-03-12T14:54:24;8.63;;;4.57;;
13122;SDS011;6627;50.920;12.050;2023-03-12T14:56:53;5.17;;;3.07;;
13122;SDS011;6627;50.920;12.050;2023-03-12T14:59:22;6.23;;;3.17;;
13122;SDS011;6627;50.920;12.050;2023-03-12T15:01:55;8.40;;;4.23;;
13122;SDS011;6627;50.920;12.050;2023-03-12T15:04:27;5.87;;;4.00;;
13122;SDS011;6627;50.920;12.050;2023-03-12T15:06:59;4.77;;;2.83;;
13122;SDS011;6627;50.920;12.050;2023-03-12T15:09:31;13.00;;;6.20;;
13122;SDS011;6627;50.920;12.050;2023-03-12T15:12:02;7.93;;;4.70;;
13122;SDS011;6627;50.920;12.050;2023-03-12T15:14:33;9.10;;;5.87;;
13122;SDS011;6627;50.920;12.050;2023-03-12T15:17:05;7.90;;;4.63;;
13122;SDS011;6627;50.920;12.050;2023-03-12T15:19:34;5.77;;;2.63;;
13122;SDS011;6627;50.920;12.050;2023-03-12T15:22:05;4.73;;;3.43;;